NY/NJ Local METAR Reports

 

KNYC - NYC/Central Park, NY, USA
Distance from Hoboken: NE 4mi, 7km
Updated: 07/19/2018 10:51am
Clear
Clear
 
Temperature: 75°F , 24°C
Dew Point: 48°F , 9°C
Humidity: 39%
Barometer: 30.14 inHg , 1020.7 hPa
Clouds: Clear
Visibility: 10 miles , 16 km
2018/07/19 14:51 KNYC 191451Z AUTO 10SM CLR 24/09 A3014 RMK AO2 SLP197 T02390094 51012 $
KEWR - Newark, NJ, USA
Distance from Hoboken: WSW 8mi, 13km
Updated: 07/19/2018 10:51am
Clear
Clear
 Wind from varies
Wind: varies 3 mph , 6 km/h
Temperature: 79°F , 26°C
Dew Point: 46°F , 8°C
Humidity: 32%
Barometer: 30.11 inHg , 1019.6 hPa
Clouds: Clear
Visibility: 10 miles , 16 km
2018/07/19 14:51 KEWR 191451Z VRB03KT 10SM CLR 26/08 A3011 RMK AO2 SLP196 T02560083 51012
 
KLGA - NYC/La Guardia, NY, USA
Distance from Hoboken: ENE 8mi, 13km
Updated: 07/19/2018 10:51am
Clear
Clear
 Wind from NE
Wind: NE 10 mph , 17 km/h
Temperature: 73°F , 23°C
Dew Point: 52°F , 11°C
Humidity: 47%
Barometer: 30.11 inHg , 1019.6 hPa
Clouds: Clear
Visibility: 10 miles , 16 km
2018/07/19 14:51 KLGA 191451Z 05009KT 10SM CLR 23/11 A3011 RMK AO2 SLP196 T02330106 51013 $
KTEB - Teterboro, NJ, USA
Distance from Hoboken: N 9mi, 14km
Updated: 07/19/2018 10:51am
Clear
Clear
 Wind from varies
Wind: varies 5 mph , 7 km/h
Temperature: 79°F , 26°C
Dew Point: 48°F , 9°C
Humidity: 34%
Barometer: 30.10 inHg , 1019.3 hPa
Clouds: Clear
Visibility: 10 miles , 16 km
2018/07/19 14:51 KTEB 191451Z VRB04KT 10SM CLR 26/09 A3010 RMK AO2 SLP193 T02560094 51009
 
KJFK - NYC/Jfk Arpt, NY, USA
Distance from Hoboken: ESE 16mi, 25km
Updated: 07/19/2018 10:51am
Clear
Clear
 Wind from NNE
Wind: NNE 6 mph , 9 km/h
Temperature: 79°F , 26°C
Dew Point: 52°F , 11°C
Humidity: 39%
Barometer: 30.11 inHg , 1019.6 hPa
Clouds: Clear
Visibility: 10 miles , 16 km
2018/07/19 14:51 KJFK 191451Z 03005KT 10SM CLR 26/11 A3011 RMK AO2 SLP197 T02560106 51012
KCDW - Caldwell, NJ, USA
Distance from Hoboken: NW 16mi, 26km
Updated: 07/19/2018 10:53am
Clear
Clear
 Wind from varies
Wind: varies 5 mph , 7 km/h
Temperature: 75°F , 24°C
Dew Point: 50°F , 10°C
Humidity: 41%
Barometer: 30.12 inHg , 1020 hPa
Clouds: Clear
Visibility: 10 miles , 16 km
2018/07/19 14:53 KCDW 191453Z VRB04KT 10SM CLR 24/10 A3012 RMK AO2 SLP205 T02390100 51009
 
KMMU - Morristown Muni, NJ, USA
Distance from Hoboken: W 20mi, 33km
Updated: 07/19/2018 10:45am
Clear
Clear
 Wind from ENE
Wind: ENE 6 mph , 9 km/h
Temperature: 75°F , 24°C
Dew Point: 55°F , 13°C
Humidity: 50%
Barometer: 30.12 inHg , 1020 hPa
Clouds: Clear
Visibility: 10 miles , 16 km
2018/07/19 14:45 KMMU 191445Z 06005KT 10SM SKC 24/13 A3012
KHPN - White Plains, NY, USA
Distance from Hoboken: NE 28mi, 46km
Updated: 07/19/2018 10:56am
Clear
Clear
 Wind from N
Wind: N 5 mph , 7 km/h
Temperature: 75°F , 24°C
Dew Point: 46°F , 8°C
Humidity: 36%
Barometer: 30.12 inHg , 1020 hPa
Clouds: Clear
Visibility: 10 miles , 16 km
2018/07/19 14:56 KHPN 191456Z 36004KT 10SM CLR 24/08 A3012 RMK AO2 SLP195 T02390083 51011
 
KFRG - Farmingdale, NY, USA
Distance from Hoboken: E 32mi, 52km
Updated: 07/19/2018 10:53am
Clear
Clear
 Wind from varies
Wind: varies 6 mph , 9 km/h
Temperature: 75°F , 24°C
Dew Point: 52°F , 11°C
Humidity: 44%
Barometer: 30.11 inHg , 1019.6 hPa
Clouds: Clear
Visibility: 10 miles , 16 km
2018/07/19 14:53 KFRG 191453Z VRB05KT 10SM CLR 24/11 A3011 RMK AO2 SLP195 T02440111 51011
KSMQ - Somerville, NJ, USA
Distance from Hoboken: WSW 34mi, 55km
Updated: 07/19/2018 10:53am
Clear
Clear
 Wind from calm
Wind: Calm
Temperature: 77°F , 25°C
Dew Point: 55°F , 13°C
Humidity: 47%
Barometer: 30.10 inHg , 1019.3 hPa
Clouds: Clear
Visibility: 10 miles , 16 km
2018/07/19 14:53 KSMQ 191453Z AUTO 00000KT 10SM CLR 25/13 A3010 RMK AO2 SLP191 T02500133 51010
 
KBLM - Belmar/Farmdale, NJ, USA
Distance from Hoboken: S 40mi, 64km
Updated: 07/19/2018 10:56am
Clear
Clear
 Wind from NE
Wind: NE 6 mph , 9 km/h
Temperature: 73°F , 23°C
Dew Point: 57°F , 14°C
Humidity: 57%
Barometer: 30.12 inHg , 1020 hPa
Clouds: Clear
Visibility: 10 miles , 16 km
2018/07/19 14:56 KBLM 191456Z AUTO 04005KT 10SM CLR 23/14 A3012 RMK AO2 SLP203 T02330144 51014
K12N - Andover, NJ, USA
Distance from Hoboken: WNW 41mi, 67km
Updated: 07/19/2018 10:54am

 Wind from N
Wind: N 6 mph , 9 km/h
Temperature: 73°F , 23°C
Dew Point: 55°F , 13°C
Humidity: 53%
Barometer: 30.13 inHg , 1020.3 hPa
2018/07/19 14:54 K12N 191454Z AUTO 35005KT 23/13 A3013 RMK AO1 SLP198 T02330133 51007
 
KFWN - Sussex, NJ, USA
Distance from Hoboken: NW 45mi, 72km
Updated: 07/19/2018 10:53am
Clear
Clear
 Wind from varies
Wind: varies 6 mph , 9 km/h
Temperature: 73°F , 23°C
Dew Point: 54°F , 12°C
Humidity: 50%
Barometer: 30.13 inHg , 1020.3 hPa
Clouds: Clear
Visibility: 10 miles , 16 km
2018/07/19 14:53 KFWN 191453Z AUTO VRB05KT 10SM CLR 23/12 A3013 RMK AO2 SLP202 T02280122 51007
KISP - Islip, NY, USA
Distance from Hoboken: E 49mi, 79km
Updated: 07/19/2018 10:56am
Clear
Clear
 Wind from varies
Wind: varies 3 mph , 6 km/h
Temperature: 77°F , 25°C
Dew Point: 52°F , 11°C
Humidity: 42%
Barometer: 30.10 inHg , 1019.3 hPa
Clouds: Clear
Visibility: 10 miles , 16 km
2018/07/19 14:56 KISP 191456Z VRB03KT 10SM CLR 25/11 A3010 RMK AO2 SLP193 T02500111 51009